Manchester Airport Manchester US
ICAO: KMHT
IATA: MHT
Category: Large
Scheduled Services: Yes

Elevation: 266 ft
TransAlt. 18000 ft.

Airport Communications:
Boston Approach/Departure (Below 4000'):124.9
Boston Approach/Departure (4000'-10000'):134.75
ASOS:119.55
ATIS:119.55
CLNC DEL:135.9
GND:121.9
BANGOR RDO:114.4
TWR:121.3
UNICOM:122.95

KMHT Zoom In..

If Map Doesn't Load, Click Here

Runways:

(A) RW 06 length 7650 ft width 150 ft
ILS 109.95 / hdg 58

(B) RW 17 length 9250 ft width 150 ft
ILS 109.10 / hdg 173

(C) RW 24 length 7650 ft width 150 ft
---- / hdg 238

(D) RW 35 length 9250 ft width 150 ft
ILS 109.10 / hdg 353

Location; KMHT
Day. 24 / Time. 04.53 Zulu
* Altimeter: 30.34
* Temperature: 12° c. 53.6°f.
* Wind from: 350° Speed 05 kn.
Dewpoint: 10° c.
Visibility: 10 Statute Miles.
Clouds: Broken 25000 ft.

KMHT 240453Z 35005KT 10SM BKN250 12/10 A3034 RMK AO2 SLP285 T01220100 401890078


Wind From 350°
Speed 05 kn.

 
 
jpsmedia.com for Web Design worldairports.se 2018   terms of use